sensor_id;sensor_type;location;lat;lon;timestamp;pressure;altitude;pressure_sealevel;temperature;humidity
10510;BME280;5303;53.266;10.410;2023-04-01T00:01:56;63356.72;;;-147.00;100.00
10510;BME280;5303;53.266;10.410;2023-04-01T00:04:22;63356.72;;;-147.00;100.00
10510;BME280;5303;53.266;10.410;2023-04-01T00:06:47;63356.72;;;-147.00;100.00
10510;BME280;5303;53.266;10.410;2023-04-01T00:09:13;63356.72;;;-147.00;100.00
10510;BME280;5303;53.266;10.410;2023-04-01T00:11:38;63356.72;;;-147.00;100.00
10510;BME280;5303;53.266;10.410;2023-04-01T00:14:05;63356.72;;;-147.00;100.00
10510;BME280;5303;53.266;10.410;2023-04-01T00:16:30;63356.72;;;-147.00;100.00
10510;BME280;5303;53.266;10.410;2023-04-01T00:18:56;63356.72;;;-147.00;100.00
10510;BME280;5303;53.266;10.410;2023-04-01T00:21:21;63356.72;;;-147.00;100.00
10510;BME280;5303;53.266;10.410;2023-04-01T00:23:48;63356.72;;;-147.00;100.00
10510;BME280;5303;53.266;10.410;2023-04-01T00:26:13;63356.72;;;-147.00;100.00
10510;BME280;5303;53.266;10.410;2023-04-01T00:28:40;63356.72;;;-147.00;100.00
10510;BME280;5303;53.266;10.410;2023-04-01T00:31:08;63356.72;;;-147.00;100.00
10510;BME280;5303;53.266;10.410;2023-04-01T00:33:34;63356.72;;;-147.00;100.00
10510;BME280;5303;53.266;10.410;2023-04-01T00:36:07;63356.72;;;-147.00;100.00
10510;BME280;5303;53.266;10.410;2023-04-01T00:38:34;63356.72;;;-147.00;100.00
10510;BME280;5303;53.266;10.410;2023-04-01T00:40:59;63356.72;;;-147.00;100.00
10510;BME280;5303;53.266;10.410;2023-04-01T00:43:25;63356.72;;;-147.00;100.00
10510;BME280;5303;53.266;10.410;2023-04-01T00:45:51;63356.72;;;-147.00;100.00
10510;BME280;5303;53.266;10.410;2023-04-01T00:48:20;63356.72;;;-147.00;100.00
10510;BME280;5303;53.266;10.410;2023-04-01T00:50:58;63356.72;;;-147.00;100.00
10510;BME280;5303;53.266;10.410;2023-04-01T00:53:25;63356.72;;;-147.00;100.00
10510;BME280;5303;53.266;10.410;2023-04-01T00:56:01;63356.72;;;-147.00;100.00
10510;BME280;5303;53.266;10.410;2023-04-01T00:58:32;63356.72;;;-147.00;100.00
10510;BME280;5303;53.266;10.410;2023-04-01T01:01:00;63356.72;;;-147.00;100.00
10510;BME280;5303;53.266;10.410;2023-04-01T01:03:26;63356.72;;;-147.00;100.00
10510;BME280;5303;53.266;10.410;2023-04-01T01:11:40;63356.72;;;-147.00;100.00
10510;BME280;5303;53.266;10.410;2023-04-01T01:14:13;63356.72;;;-147.00;100.00
10510;BME280;5303;53.266;10.410;2023-04-01T01:16:49;63356.72;;;-147.00;100.00
10510;BME280;5303;53.266;10.410;2023-04-01T01:24:51;63356.72;;;-147.00;100.00
10510;BME280;5303;53.266;10.410;2023-04-01T01:27:21;63356.72;;;-147.00;100.00
10510;BME280;5303;53.266;10.410;2023-04-01T01:32:45;63356.72;;;-147.00;100.00
10510;BME280;5303;53.266;10.410;2023-04-01T01:35:30;63356.72;;;-147.00;100.00
10510;BME280;5303;53.266;10.410;2023-04-01T01:38:10;63356.72;;;-147.00;100.00
10510;BME280;5303;53.266;10.410;2023-04-01T01:40:39;63356.72;;;-147.00;100.00
10510;BME280;5303;53.266;10.410;2023-04-01T01:43:10;63356.72;;;-147.00;100.00
10510;BME280;5303;53.266;10.410;2023-04-01T01:45:40;63356.72;;;-147.00;100.00
10510;BME280;5303;53.266;10.410;2023-04-01T01:48:09;63356.72;;;-147.00;100.00
10510;BME280;5303;53.266;10.410;2023-04-01T01:50:36;63356.72;;;-147.00;100.00
10510;BME280;5303;53.266;10.410;2023-04-01T01:53:04;63356.72;;;-147.00;100.00
10510;BME280;5303;53.266;10.410;2023-04-01T01:55:33;63356.72;;;-147.00;100.00
10510;BME280;5303;53.266;10.410;2023-04-01T01:58:02;63356.72;;;-147.00;100.00
10510;BME280;5303;53.266;10.410;2023-04-01T02:00:30;63356.72;;;-147.00;100.00
10510;BME280;5303;53.266;10.410;2023-04-01T02:02:57;63356.72;;;-147.00;100.00
10510;BME280;5303;53.266;10.410;2023-04-01T02:05:26;63356.72;;;-147.00;100.00
10510;BME280;5303;53.266;10.410;2023-04-01T02:08:02;63356.72;;;-147.00;100.00
10510;BME280;5303;53.266;10.410;2023-04-01T02:10:35;63356.72;;;-147.00;100.00
10510;BME280;5303;53.266;10.410;2023-04-01T02:13:07;63356.72;;;-147.00;100.00
10510;BME280;5303;53.266;10.410;2023-04-01T02:15:40;63356.72;;;-147.00;100.00
10510;BME280;5303;53.266;10.410;2023-04-01T02:18:07;63356.72;;;-147.00;100.00
10510;BME280;5303;53.266;10.410;2023-04-01T02:20:33;63356.72;;;-147.00;100.00
10510;BME280;5303;53.266;10.410;2023-04-01T02:23:01;63356.72;;;-147.00;100.00
10510;BME280;5303;53.266;10.410;2023-04-01T02:25:29;63356.72;;;-147.00;100.00
10510;BME280;5303;53.266;10.410;2023-04-01T02:27:57;63356.72;;;-147.00;100.00
10510;BME280;5303;53.266;10.410;2023-04-01T02:30:29;63356.72;;;-147.00;100.00
10510;BME280;5303;53.266;10.410;2023-04-01T02:32:57;63356.72;;;-147.00;100.00
10510;BME280;5303;53.266;10.410;2023-04-01T02:35:24;63356.72;;;-147.00;100.00
10510;BME280;5303;53.266;10.410;2023-04-01T02:37:52;63356.72;;;-147.00;100.00
10510;BME280;5303;53.266;10.410;2023-04-01T02:40:17;63356.72;;;-147.00;100.00
10510;BME280;5303;53.266;10.410;2023-04-01T02:42:43;63356.72;;;-147.00;100.00
10510;BME280;5303;53.266;10.410;2023-04-01T02:45:09;63356.72;;;-147.00;100.00
10510;BME280;5303;53.266;10.410;2023-04-01T02:47:35;63356.72;;;-147.00;100.00
10510;BME280;5303;53.266;10.410;2023-04-01T02:50:00;63356.72;;;-147.00;100.00
10510;BME280;5303;53.266;10.410;2023-04-01T02:52:27;63356.72;;;-147.00;100.00
10510;BME280;5303;53.266;10.410;2023-04-01T02:54:52;63356.72;;;-147.00;100.00
10510;BME280;5303;53.266;10.410;2023-04-01T02:57:18;63356.72;;;-147.00;100.00
10510;BME280;5303;53.266;10.410;2023-04-01T02:59:44;63356.72;;;-147.00;100.00
10510;BME280;5303;53.266;10.410;2023-04-01T03:02:09;63356.72;;;-147.00;100.00
10510;BME280;5303;53.266;10.410;2023-04-01T03:04:35;63356.72;;;-147.00;100.00
10510;BME280;5303;53.266;10.410;2023-04-01T03:07:00;63356.72;;;-147.00;100.00
10510;BME280;5303;53.266;10.410;2023-04-01T03:09:26;63356.72;;;-147.00;100.00
10510;BME280;5303;53.266;10.410;2023-04-01T03:11:51;63356.72;;;-147.00;100.00
10510;BME280;5303;53.266;10.410;2023-04-01T03:14:16;63356.72;;;-147.00;100.00
10510;BME280;5303;53.266;10.410;2023-04-01T03:16:41;63356.72;;;-147.00;100.00
10510;BME280;5303;53.266;10.410;2023-04-01T03:19:07;63356.72;;;-147.00;100.00
10510;BME280;5303;53.266;10.410;2023-04-01T03:21:32;63356.72;;;-147.00;100.00
10510;BME280;5303;53.266;10.410;2023-04-01T03:23:57;63356.72;;;-147.00;100.00
10510;BME280;5303;53.266;10.410;2023-04-01T03:26:23;63356.72;;;-147.00;100.00
10510;BME280;5303;53.266;10.410;2023-04-01T03:28:49;63356.72;;;-147.00;100.00
10510;BME280;5303;53.266;10.410;2023-04-01T03:31:14;63356.72;;;-147.00;100.00
10510;BME280;5303;53.266;10.410;2023-04-01T03:33:41;63356.72;;;-147.00;100.00
10510;BME280;5303;53.266;10.410;2023-04-01T03:36:07;63356.72;;;-147.00;100.00
10510;BME280;5303;53.266;10.410;2023-04-01T03:38:33;63356.72;;;-147.00;100.00
10510;BME280;5303;53.266;10.410;2023-04-01T03:40:59;63356.72;;;-147.00;100.00
10510;BME280;5303;53.266;10.410;2023-04-01T03:43:24;63356.72;;;-147.00;100.00
10510;BME280;5303;53.266;10.410;2023-04-01T03:45:51;63356.72;;;-147.00;100.00
10510;BME280;5303;53.266;10.410;2023-04-01T03:48:16;63356.72;;;-147.00;100.00
10510;BME280;5303;53.266;10.410;2023-04-01T03:50:43;63356.72;;;-147.00;100.00
10510;BME280;5303;53.266;10.410;2023-04-01T03:53:08;63356.72;;;-147.00;100.00
10510;BME280;5303;53.266;10.410;2023-04-01T03:55:36;63356.72;;;-147.00;100.00
10510;BME280;5303;53.266;10.410;2023-04-01T03:58:02;63356.72;;;-147.00;100.00
10510;BME280;5303;53.266;10.410;2023-04-01T04:00:29;63356.72;;;-147.00;100.00
10510;BME280;5303;53.266;10.410;2023-04-01T04:02:54;63356.72;;;-147.00;100.00
10510;BME280;5303;53.266;10.410;2023-04-01T04:05:22;63356.72;;;-147.00;100.00
10510;BME280;5303;53.266;10.410;2023-04-01T04:07:47;63356.72;;;-147.00;100.00
10510;BME280;5303;53.266;10.410;2023-04-01T04:10:12;63356.72;;;-147.00;100.00
10510;BME280;5303;53.266;10.410;2023-04-01T04:12:38;63356.72;;;-147.00;100.00
10510;BME280;5303;53.266;10.410;2023-04-01T04:15:03;63356.72;;;-147.00;100.00
10510;BME280;5303;53.266;10.410;2023-04-01T04:17:29;63356.72;;;-147.00;100.00
10510;BME280;5303;53.266;10.410;2023-04-01T04:19:54;63356.72;;;-147.00;100.00
10510;BME280;5303;53.266;10.410;2023-04-01T04:22:20;63356.72;;;-147.00;100.00
10510;BME280;5303;53.266;10.410;2023-04-01T04:24:45;63356.72;;;-147.00;100.00
10510;BME280;5303;53.266;10.410;2023-04-01T04:27:10;63356.72;;;-147.00;100.00
10510;BME280;5303;53.266;10.410;2023-04-01T04:29:35;63356.72;;;-147.00;100.00
10510;BME280;5303;53.266;10.410;2023-04-01T04:32:01;63356.72;;;-147.00;100.00
10510;BME280;5303;53.266;10.410;2023-04-01T04:34:26;63356.72;;;-147.00;100.00
10510;BME280;5303;53.266;10.410;2023-04-01T04:36:52;63356.72;;;-147.00;100.00
10510;BME280;5303;53.266;10.410;2023-04-01T04:39:17;63356.72;;;-147.00;100.00
10510;BME280;5303;53.266;10.410;2023-04-01T04:41:42;63356.72;;;-147.00;100.00
10510;BME280;5303;53.266;10.410;2023-04-01T04:44:08;63356.72;;;-147.00;100.00
10510;BME280;5303;53.266;10.410;2023-04-01T04:46:33;63356.72;;;-147.00;100.00
10510;BME280;5303;53.266;10.410;2023-04-01T04:48:58;63356.72;;;-147.00;100.00
10510;BME280;5303;53.266;10.410;2023-04-01T04:51:24;63356.72;;;-147.00;100.00
10510;BME280;5303;53.266;10.410;2023-04-01T04:53:50;63356.72;;;-147.00;100.00
10510;BME280;5303;53.266;10.410;2023-04-01T04:56:22;63356.72;;;-147.00;100.00
10510;BME280;5303;53.266;10.410;2023-04-01T04:58:50;63356.72;;;-147.00;100.00
10510;BME280;5303;53.266;10.410;2023-04-01T05:01:16;63356.72;;;-147.00;100.00
10510;BME280;5303;53.266;10.410;2023-04-01T05:03:42;63356.72;;;-147.00;100.00
10510;BME280;5303;53.266;10.410;2023-04-01T05:06:09;63356.72;;;-147.00;100.00
10510;BME280;5303;53.266;10.410;2023-04-01T05:08:35;63356.72;;;-147.00;100.00
10510;BME280;5303;53.266;10.410;2023-04-01T05:11:01;63356.72;;;-147.00;100.00
10510;BME280;5303;53.266;10.410;2023-04-01T05:13:27;63356.72;;;-147.00;100.00
10510;BME280;5303;53.266;10.410;2023-04-01T05:15:53;63356.72;;;-147.00;100.00
10510;BME280;5303;53.266;10.410;2023-04-01T05:18:18;63356.72;;;-147.00;100.00
10510;BME280;5303;53.266;10.410;2023-04-01T05:20:51;63356.72;;;-147.00;100.00
10510;BME280;5303;53.266;10.410;2023-04-01T05:23:17;63356.72;;;-147.00;100.00
10510;BME280;5303;53.266;10.410;2023-04-01T05:25:43;63356.72;;;-147.00;100.00
10510;BME280;5303;53.266;10.410;2023-04-01T05:28:10;63356.72;;;-147.00;100.00
10510;BME280;5303;53.266;10.410;2023-04-01T05:30:35;63356.72;;;-147.00;100.00
10510;BME280;5303;53.266;10.410;2023-04-01T05:33:01;63356.72;;;-147.00;100.00
10510;BME280;5303;53.266;10.410;2023-04-01T05:35:26;63356.72;;;-147.00;100.00
10510;BME280;5303;53.266;10.410;2023-04-01T05:37:51;63356.72;;;-147.00;100.00
10510;BME280;5303;53.266;10.410;2023-04-01T05:40:17;63356.72;;;-147.00;100.00
10510;BME280;5303;53.266;10.410;2023-04-01T05:42:43;63356.72;;;-147.00;100.00
10510;BME280;5303;53.266;10.410;2023-04-01T05:45:08;63356.72;;;-147.00;100.00
10510;BME280;5303;53.266;10.410;2023-04-01T05:47:34;63356.72;;;-147.00;100.00
10510;BME280;5303;53.266;10.410;2023-04-01T05:49:59;63356.72;;;-147.00;100.00
10510;BME280;5303;53.266;10.410;2023-04-01T05:52:25;63356.72;;;-147.00;100.00
10510;BME280;5303;53.266;10.410;2023-04-01T05:54:50;63356.72;;;-147.00;100.00
10510;BME280;5303;53.266;10.410;2023-04-01T05:57:16;63356.72;;;-147.00;100.00
10510;BME280;5303;53.266;10.410;2023-04-01T05:59:41;63356.72;;;-147.00;100.00
10510;BME280;5303;53.266;10.410;2023-04-01T06:02:08;63356.72;;;-147.00;100.00
10510;BME280;5303;53.266;10.410;2023-04-01T06:04:38;63356.72;;;-147.00;100.00
10510;BME280;5303;53.266;10.410;2023-04-01T06:07:14;63356.72;;;-147.00;100.00
10510;BME280;5303;53.266;10.410;2023-04-01T06:09:40;63356.72;;;-147.00;100.00
10510;BME280;5303;53.266;10.410;2023-04-01T06:12:28;63356.72;;;-147.00;100.00
10510;BME280;5303;53.266;10.410;2023-04-01T06:17:58;63356.72;;;-147.00;100.00
10510;BME280;5303;53.266;10.410;2023-04-01T06:20:45;63356.72;;;-147.00;100.00
10510;BME280;5303;53.266;10.410;2023-04-01T06:25:50;63356.72;;;-147.00;100.00
10510;BME280;5303;53.266;10.410;2023-04-01T06:34:14;63356.72;;;-147.00;100.00
10510;BME280;5303;53.266;10.410;2023-04-01T06:50:00;63356.72;;;-147.00;100.00
10510;BME280;5303;53.266;10.410;2023-04-01T06:52:46;63356.72;;;-147.00;100.00
10510;BME280;5303;53.266;10.410;2023-04-01T06:57:58;63356.72;;;-147.00;100.00
10510;BME280;5303;53.266;10.410;2023-04-01T07:00:29;63356.72;;;-147.00;100.00
10510;BME280;5303;53.266;10.410;2023-04-01T07:05:44;63356.72;;;-147.00;100.00
10510;BME280;5303;53.266;10.410;2023-04-01T07:08:14;63356.72;;;-147.00;100.00
10510;BME280;5303;53.266;10.410;2023-04-01T07:10:56;63356.72;;;-147.00;100.00
10510;BME280;5303;53.266;10.410;2023-04-01T07:13:46;63356.72;;;-147.00;100.00
10510;BME280;5303;53.266;10.410;2023-04-01T07:16:17;63356.72;;;-147.00;100.00
10510;BME280;5303;53.266;10.410;2023-04-01T07:18:58;63356.72;;;-147.00;100.00
10510;BME280;5303;53.266;10.410;2023-04-01T07:21:35;63356.72;;;-147.00;100.00
10510;BME280;5303;53.266;10.410;2023-04-01T07:24:09;63356.72;;;-147.00;100.00
10510;BME280;5303;53.266;10.410;2023-04-01T07:26:36;63356.72;;;-147.00;100.00
10510;BME280;5303;53.266;10.410;2023-04-01T07:29:05;63356.72;;;-147.00;100.00
10510;BME280;5303;53.266;10.410;2023-04-01T07:31:59;63356.72;;;-147.00;100.00
10510;BME280;5303;53.266;10.410;2023-04-01T07:34:36;63356.72;;;-147.00;100.00
10510;BME280;5303;53.266;10.410;2023-04-01T07:49:17;99566.06;;;15.23;100.00
10510;BME280;5303;53.266;10.410;2023-04-01T07:54:45;99571.03;;;17.53;100.00
10510;BME280;5303;53.266;10.410;2023-04-01T08:00:05;99583.41;;;17.67;99.60
10510;BME280;5303;53.266;10.410;2023-04-01T08:05:28;99590.16;;;17.42;98.22
10510;BME280;5303;53.266;10.410;2023-04-01T08:22:05;99631.81;;;16.65;100.00
10510;BME280;5303;53.266;10.410;2023-04-01T08:24:42;99633.72;;;16.53;100.00
10510;BME280;5303;53.266;10.410;2023-04-01T08:27:17;99641.88;;;16.60;99.70
10510;BME280;5303;53.266;10.410;2023-04-01T08:30:25;99632.81;;;16.99;100.00
10510;BME280;5303;53.266;10.410;2023-04-01T08:32:55;99641.50;;;16.80;100.00
10510;BME280;5303;53.266;10.410;2023-04-01T08:35:31;99645.34;;;16.43;100.00
10510;BME280;5303;53.266;10.410;2023-04-01T08:38:10;99660.53;;;15.57;100.00
10510;BME280;5303;53.266;10.410;2023-04-01T08:40:56;99642.00;;;16.76;100.00
10510;BME280;5303;53.266;10.410;2023-04-01T08:57:04;99664.06;;;16.82;96.60
10510;BME280;5303;53.266;10.410;2023-04-01T08:59:57;99666.09;;;17.55;92.43
10510;BME280;5303;53.266;10.410;2023-04-01T09:08:24;99687.75;;;16.59;98.97
10510;BME280;5303;53.266;10.410;2023-04-01T09:11:06;99686.34;;;16.21;99.82
10510;BME280;5303;53.266;10.410;2023-04-01T09:13:54;99688.47;;;15.96;100.00
10510;BME280;5303;53.266;10.410;2023-04-01T09:24:46;99704.03;;;16.84;97.32
10510;BME280;5303;53.266;10.410;2023-04-01T09:30:11;99714.41;;;16.23;100.00
10510;BME280;5303;53.266;10.410;2023-04-01T09:33:22;99712.13;;;16.09;98.63
10510;BME280;5303;53.266;10.410;2023-04-01T09:36:03;99721.09;;;16.27;97.95
10510;BME280;5303;53.266;10.410;2023-04-01T09:38:53;99721.09;;;16.98;94.45
10510;BME280;5303;53.266;10.410;2023-04-01T09:44:08;99730.75;;;17.12;93.31
10510;BME280;5303;53.266;10.410;2023-04-01T09:55:00;99748.13;;;17.01;90.29
10510;BME280;5303;53.266;10.410;2023-04-01T10:03:30;99754.34;;;15.84;100.00
10510;BME280;5303;53.266;10.410;2023-04-01T10:06:39;99767.91;;;16.21;96.59
10510;BME280;5303;53.266;10.410;2023-04-01T10:17:19;99778.53;;;16.17;97.93
10510;BME280;5303;53.266;10.410;2023-04-01T10:22:56;99797.00;;;15.50;100.00
10510;BME280;5303;53.266;10.410;2023-04-01T10:25:57;99792.69;;;17.38;89.87
10510;BME280;5303;53.266;10.410;2023-04-01T10:34:30;99799.09;;;16.15;93.44
10510;BME280;5303;53.266;10.410;2023-04-01T10:40:44;99801.47;;;16.11;95.90
10510;BME280;5303;53.266;10.410;2023-04-01T10:43:49;99803.78;;;16.26;91.01
10510;BME280;5303;53.266;10.410;2023-04-01T10:54:46;99817.13;;;15.44;98.42
10510;BME280;5303;53.266;10.410;2023-04-01T11:11:03;99833.97;;;16.14;95.63
10510;BME280;5303;53.266;10.410;2023-04-01T11:20:03;99843.41;;;15.88;96.08
10510;BME280;5303;53.266;10.410;2023-04-01T11:22:40;99847.00;;;15.89;94.96
10510;BME280;5303;53.266;10.410;2023-04-01T11:33:48;99860.34;;;17.86;87.37
10510;BME280;5303;53.266;10.410;2023-04-01T11:42:22;99878.59;;;15.43;96.46
10510;BME280;5303;53.266;10.410;2023-04-01T11:45:01;99903.16;;;15.12;100.00
10510;BME280;5303;53.266;10.410;2023-04-01T11:47:48;99885.50;;;16.00;97.82
10510;BME280;5303;53.266;10.410;2023-04-01T11:56:07;99896.97;;;15.79;96.35
10510;BME280;5303;53.266;10.410;2023-04-01T11:59:04;99907.50;;;16.00;94.27
10510;BME280;5303;53.266;10.410;2023-04-01T12:09:46;99926.22;;;16.22;94.61
10510;BME280;5303;53.266;10.410;2023-04-01T12:12:23;99925.63;;;15.46;99.46
10510;BME280;5303;53.266;10.410;2023-04-01T12:15:17;99937.22;;;16.22;91.67
10510;BME280;5303;53.266;10.410;2023-04-01T12:18:17;99940.97;;;15.54;96.93
10510;BME280;5303;53.266;10.410;2023-04-01T12:23:33;99946.22;;;16.11;91.47
10510;BME280;5303;53.266;10.410;2023-04-01T12:26:22;99960.28;;;16.02;92.61
10510;BME280;5303;53.266;10.410;2023-04-01T12:31:53;99951.31;;;16.44;88.51
10510;BME280;5303;53.266;10.410;2023-04-01T12:34:38;99976.94;;;15.89;88.32
10510;BME280;5303;53.266;10.410;2023-04-01T12:37:21;99971.78;;;16.11;90.93
10510;BME280;5303;53.266;10.410;2023-04-01T12:50:55;99996.25;;;15.57;92.19
10510;BME280;5303;53.266;10.410;2023-04-01T12:53:37;99997.84;;;15.90;93.46
10510;BME280;5303;53.266;10.410;2023-04-01T12:56:11;100000.66;;;15.83;91.61
10510;BME280;5303;53.266;10.410;2023-04-01T13:01:23;100006.94;;;16.39;84.47
10510;BME280;5303;53.266;10.410;2023-04-01T13:04:08;100009.41;;;16.77;85.06
10510;BME280;5303;53.266;10.410;2023-04-01T13:23:43;100037.91;;;15.73;93.72
10510;BME280;5303;53.266;10.410;2023-04-01T13:26:38;100057.09;;;14.98;94.73
10510;BME280;5303;53.266;10.410;2023-04-01T13:29:14;100043.81;;;16.50;89.96
10510;BME280;5303;53.266;10.410;2023-04-01T13:31:51;100060.56;;;14.80;95.95
10510;BME280;5303;53.266;10.410;2023-04-01T13:39:39;100054.50;;;16.58;86.22
10510;BME280;5303;53.266;10.410;2023-04-01T13:44:46;100070.38;;;16.01;88.51
10510;BME280;5303;53.266;10.410;2023-04-01T13:50:23;100089.53;;;15.64;90.14
10510;BME280;5303;53.266;10.410;2023-04-01T13:56:02;100093.78;;;16.28;87.91
10510;BME280;5303;53.266;10.410;2023-04-01T13:59:02;100108.47;;;14.77;93.25
10510;BME280;5303;53.266;10.410;2023-04-01T14:07:47;100118.31;;;14.85;92.74
10510;BME280;5303;53.266;10.410;2023-04-01T14:16:04;100128.75;;;14.63;93.38
10510;BME280;5303;53.266;10.410;2023-04-01T14:21:49;100141.97;;;15.18;91.02
10510;BME280;5303;53.266;10.410;2023-04-01T14:24:28;100141.53;;;13.91;96.80
10510;BME280;5303;53.266;10.410;2023-04-01T14:41:47;100166.94;;;14.58;89.60
10510;BME280;5303;53.266;10.410;2023-04-01T14:50:03;100174.22;;;15.60;85.06
10510;BME280;5303;53.266;10.410;2023-04-01T14:52:32;100180.50;;;15.99;84.71
10510;BME280;5303;53.266;10.410;2023-04-01T14:55:00;100183.50;;;14.89;87.26
10510;BME280;5303;53.266;10.410;2023-04-01T14:57:30;100193.47;;;14.71;89.88
10510;BME280;5303;53.266;10.410;2023-04-01T15:00:17;100194.59;;;14.16;91.22
10510;BME280;5303;53.266;10.410;2023-04-01T15:03:02;100205.53;;;15.08;88.09
10510;BME280;5303;53.266;10.410;2023-04-01T15:05:55;100205.44;;;15.28;87.25
10510;BME280;5303;53.266;10.410;2023-04-01T15:11:19;100202.66;;;14.96;88.21
10510;BME280;5303;53.266;10.410;2023-04-01T15:13:58;100214.22;;;15.81;83.33
10510;BME280;5303;53.266;10.410;2023-04-01T15:19:29;100220.22;;;14.82;84.37
10510;BME280;5303;53.266;10.410;2023-04-01T15:22:15;100233.28;;;15.38;83.50
10510;BME280;5303;53.266;10.410;2023-04-01T15:30:33;100253.81;;;14.64;84.34
10510;BME280;5303;53.266;10.410;2023-04-01T15:36:12;100245.41;;;15.17;83.41
10510;BME280;5303;53.266;10.410;2023-04-01T15:41:16;100264.28;;;15.45;81.97
10510;BME280;5303;53.266;10.410;2023-04-01T15:43:47;100271.50;;;14.41;84.58
10510;BME280;5303;53.266;10.410;2023-04-01T15:46:26;100269.38;;;14.83;82.77
10510;BME280;5303;53.266;10.410;2023-04-01T15:52:05;100285.59;;;14.18;84.63
10510;BME280;5303;53.266;10.410;2023-04-01T16:00:22;100302.91;;;14.65;84.33
10510;BME280;5303;53.266;10.410;2023-04-01T16:03:00;100302.25;;;14.30;85.97
10510;BME280;5303;53.266;10.410;2023-04-01T16:08:14;100315.13;;;14.63;84.92
10510;BME280;5303;53.266;10.410;2023-04-01T16:13:32;100331.28;;;13.91;86.34
10510;BME280;5303;53.266;10.410;2023-04-01T16:21:43;100344.41;;;14.09;87.66
10510;BME280;5303;53.266;10.410;2023-04-01T16:24:17;100355.34;;;13.48;88.29
10510;BME280;5303;53.266;10.410;2023-04-01T16:26:57;100351.00;;;14.61;82.49
10510;BME280;5303;53.266;10.410;2023-04-01T16:29:48;100345.44;;;14.28;81.02
10510;BME280;5303;53.266;10.410;2023-04-01T16:32:21;100368.44;;;14.27;81.63
10510;BME280;5303;53.266;10.410;2023-04-01T16:35:14;100366.13;;;14.37;82.00
10510;BME280;5303;53.266;10.410;2023-04-01T16:37:49;100381.00;;;13.40;82.42
10510;BME280;5303;53.266;10.410;2023-04-01T16:40:25;100381.81;;;13.34;86.75
10510;BME280;5303;53.266;10.410;2023-04-01T16:43:08;100392.94;;;13.26;86.80
10510;BME280;5303;53.266;10.410;2023-04-01T16:49:03;100403.16;;;14.07;81.70
10510;BME280;5303;53.266;10.410;2023-04-01T16:51:37;100415.47;;;13.35;84.72
10510;BME280;5303;53.266;10.410;2023-04-01T16:54:13;100397.06;;;15.37;77.42
10510;BME280;5303;53.266;10.410;2023-04-01T16:56:45;100422.88;;;13.82;78.32
10510;BME280;5303;53.266;10.410;2023-04-01T16:59:29;100426.00;;;13.79;82.44
10510;BME280;5303;53.266;10.410;2023-04-01T17:04:57;100435.75;;;13.47;86.60
10510;BME280;5303;53.266;10.410;2023-04-01T17:15:51;100460.34;;;13.40;85.14
10510;BME280;5303;53.266;10.410;2023-04-01T17:18:38;100468.44;;;13.27;85.53
10510;BME280;5303;53.266;10.410;2023-04-01T17:31:23;100516.06;;;13.11;84.41
10510;BME280;5303;53.266;10.410;2023-04-01T17:34:09;100521.38;;;12.55;84.95
10510;BME280;5303;53.266;10.410;2023-04-01T17:36:59;100516.22;;;13.10;83.16
10510;BME280;5303;53.266;10.410;2023-04-01T17:39:32;100530.53;;;13.26;81.77
10510;BME280;5303;53.266;10.410;2023-04-01T17:42:22;100531.34;;;13.05;87.51
10510;BME280;5303;53.266;10.410;2023-04-01T17:45:19;100547.31;;;14.21;79.80
10510;BME280;5303;53.266;10.410;2023-04-01T17:50:52;100537.28;;;13.59;82.64
10510;BME280;5303;53.266;10.410;2023-04-01T17:53:26;100563.75;;;12.66;84.21
10510;BME280;5303;53.266;10.410;2023-04-01T17:56:12;100560.69;;;12.54;86.97
10510;BME280;5303;53.266;10.410;2023-04-01T17:58:42;100563.25;;;13.69;82.09
10510;BME280;5303;53.266;10.410;2023-04-01T18:13:00;100599.97;;;13.82;77.27
10510;BME280;5303;53.266;10.410;2023-04-01T18:21:49;100622.41;;;13.42;78.19
10510;BME280;5303;53.266;10.410;2023-04-01T18:32:32;100656.44;;;13.18;78.83
10510;BME280;5303;53.266;10.410;2023-04-01T18:37:53;100663.91;;;12.73;79.12
10510;BME280;5303;53.266;10.410;2023-04-01T18:43:18;100674.97;;;12.21;80.09
10510;BME280;5303;53.266;10.410;2023-04-01T18:49:06;100696.44;;;12.39;78.03
10510;BME280;5303;53.266;10.410;2023-04-01T18:54:33;100695.66;;;12.89;74.90
10510;BME280;5303;53.266;10.410;2023-04-01T18:59:53;100709.16;;;13.27;73.51
10510;BME280;5303;53.266;10.410;2023-04-01T19:05:44;100724.41;;;13.36;73.88
10510;BME280;5303;53.266;10.410;2023-04-01T19:19:48;100740.59;;;13.16;73.55
10510;BME280;5303;53.266;10.410;2023-04-01T19:25:37;100762.69;;;12.85;72.28
10510;BME280;5303;53.266;10.410;2023-04-01T19:28:13;100771.91;;;12.99;72.92
10510;BME280;5303;53.266;10.410;2023-04-01T19:31:16;100774.53;;;12.77;72.62
10510;BME280;5303;53.266;10.410;2023-04-01T19:33:47;100777.28;;;11.64;76.99
10510;BME280;5303;53.266;10.410;2023-04-01T19:36:46;100780.25;;;11.85;74.83
10510;BME280;5303;53.266;10.410;2023-04-01T19:42:26;100788.03;;;12.49;71.16
10510;BME280;5303;53.266;10.410;2023-04-01T19:53:28;100811.13;;;12.62;70.25
10510;BME280;5303;53.266;10.410;2023-04-01T20:01:28;100819.50;;;13.19;67.90
10510;BME280;5303;53.266;10.410;2023-04-01T20:03:59;100847.50;;;11.70;69.71
10510;BME280;5303;53.266;10.410;2023-04-01T20:06:36;100839.78;;;12.28;67.49
10510;BME280;5303;53.266;10.410;2023-04-01T20:09:34;100847.69;;;12.90;66.37
10510;BME280;5303;53.266;10.410;2023-04-01T20:14:53;100854.00;;;13.50;63.20
10510;BME280;5303;53.266;10.410;2023-04-01T20:17:42;100855.06;;;13.49;63.29
10510;BME280;5303;53.266;10.410;2023-04-01T20:28:21;100893.00;;;12.70;65.31
10510;BME280;5303;53.266;10.410;2023-04-01T20:31:53;100906.88;;;12.45;63.30
10510;BME280;5303;53.266;10.410;2023-04-01T20:36:56;100933.44;;;11.35;63.88